sensor_id;sensor_type;location;lat;lon;timestamp;P1;durP1;ratioP1;P2;durP2;ratioP2
55090;SDS011;40985;53.180;5.800;2023-03-23T00:01:23;10.45;;;8.77;;
55090;SDS011;40985;53.180;5.800;2023-03-23T00:03:52;11.20;;;9.23;;
55090;SDS011;40985;53.180;5.800;2023-03-23T00:06:21;10.45;;;8.75;;
55090;SDS011;40985;53.180;5.800;2023-03-23T00:08:49;13.23;;;9.70;;
55090;SDS011;40985;53.180;5.800;2023-03-23T00:13:54;14.30;;;12.68;;
55090;SDS011;40985;53.180;5.800;2023-03-23T00:16:23;21.25;;;15.00;;
55090;SDS011;40985;53.180;5.800;2023-03-23T00:19:07;16.27;;;14.52;;
55090;SDS011;40985;53.180;5.800;2023-03-23T00:21:35;19.63;;;14.52;;
55090;SDS011;40985;53.180;5.800;2023-03-23T00:26:35;19.98;;;16.42;;
55090;SDS011;40985;53.180;5.800;2023-03-23T00:29:05;24.15;;;18.25;;
55090;SDS011;40985;53.180;5.800;2023-03-23T00:31:33;27.75;;;22.48;;
55090;SDS011;40985;53.180;5.800;2023-03-23T00:34:00;35.22;;;25.35;;
55090;SDS011;40985;53.180;5.800;2023-03-23T00:36:29;34.30;;;27.35;;
55090;SDS011;40985;53.180;5.800;2023-03-23T00:38:56;34.03;;;28.10;;
55090;SDS011;40985;53.180;5.800;2023-03-23T00:41:26;32.28;;;27.92;;
55090;SDS011;40985;53.180;5.800;2023-03-23T00:43:56;39.20;;;28.55;;
55090;SDS011;40985;53.180;5.800;2023-03-23T00:46:25;32.13;;;26.35;;
55090;SDS011;40985;53.180;5.800;2023-03-23T00:48:53;29.92;;;23.88;;
55090;SDS011;40985;53.180;5.800;2023-03-23T00:51:21;23.45;;;19.38;;
55090;SDS011;40985;53.180;5.800;2023-03-23T00:53:47;21.95;;;17.48;;
55090;SDS011;40985;53.180;5.800;2023-03-23T00:56:14;18.05;;;15.80;;
55090;SDS011;40985;53.180;5.800;2023-03-23T00:58:40;15.38;;;13.77;;
55090;SDS011;40985;53.180;5.800;2023-03-23T01:01:06;15.90;;;12.32;;
55090;SDS011;40985;53.180;5.800;2023-03-23T01:03:32;12.90;;;11.60;;
55090;SDS011;40985;53.180;5.800;2023-03-23T01:06:03;15.10;;;10.63;;
55090;SDS011;40985;53.180;5.800;2023-03-23T01:08:30;19.13;;;12.43;;
55090;SDS011;40985;53.180;5.800;2023-03-23T01:11:01;14.98;;;12.65;;
55090;SDS011;40985;53.180;5.800;2023-03-23T01:13:28;17.08;;;12.48;;
55090;SDS011;40985;53.180;5.800;2023-03-23T01:15:54;20.48;;;13.45;;
55090;SDS011;40985;53.180;5.800;2023-03-23T01:18:20;16.73;;;14.68;;
55090;SDS011;40985;53.180;5.800;2023-03-23T01:20:45;18.15;;;13.88;;
55090;SDS011;40985;53.180;5.800;2023-03-23T01:23:11;18.95;;;13.85;;
55090;SDS011;40985;53.180;5.800;2023-03-23T01:25:37;18.02;;;13.45;;
55090;SDS011;40985;53.180;5.800;2023-03-23T01:28:02;18.17;;;13.43;;
55090;SDS011;40985;53.180;5.800;2023-03-23T01:30:31;16.88;;;13.77;;
55090;SDS011;40985;53.180;5.800;2023-03-23T01:32:58;11.63;;;8.70;;
55090;SDS011;40985;53.180;5.800;2023-03-23T01:35:24;17.85;;;9.73;;
55090;SDS011;40985;53.180;5.800;2023-03-23T01:37:50;15.38;;;9.43;;
55090;SDS011;40985;53.180;5.800;2023-03-23T01:40:16;15.45;;;9.95;;
55090;SDS011;40985;53.180;5.800;2023-03-23T01:42:42;16.58;;;10.23;;
55090;SDS011;40985;53.180;5.800;2023-03-23T01:47:46;13.90;;;9.15;;
55090;SDS011;40985;53.180;5.800;2023-03-23T01:50:19;12.38;;;9.57;;
55090;SDS011;40985;53.180;5.800;2023-03-23T01:52:49;10.75;;;8.07;;
55090;SDS011;40985;53.180;5.800;2023-03-23T01:55:18;18.58;;;8.20;;
55090;SDS011;40985;53.180;5.800;2023-03-23T01:57:44;11.13;;;7.55;;
55090;SDS011;40985;53.180;5.800;2023-03-23T02:00:11;11.02;;;7.43;;
55090;SDS011;40985;53.180;5.800;2023-03-23T02:02:40;9.50;;;7.05;;
55090;SDS011;40985;53.180;5.800;2023-03-23T02:05:13;10.50;;;7.07;;
55090;SDS011;40985;53.180;5.800;2023-03-23T02:10:11;10.63;;;5.97;;
55090;SDS011;40985;53.180;5.800;2023-03-23T02:12:37;10.07;;;5.72;;
55090;SDS011;40985;53.180;5.800;2023-03-23T02:15:03;9.90;;;4.97;;
55090;SDS011;40985;53.180;5.800;2023-03-23T02:17:31;11.38;;;5.53;;
55090;SDS011;40985;53.180;5.800;2023-03-23T02:20:18;6.78;;;4.22;;
55090;SDS011;40985;53.180;5.800;2023-03-23T02:25:28;7.47;;;4.22;;
55090;SDS011;40985;53.180;5.800;2023-03-23T02:36:32;8.80;;;3.65;;
55090;SDS011;40985;53.180;5.800;2023-03-23T02:39:10;10.95;;;3.30;;
55090;SDS011;40985;53.180;5.800;2023-03-23T02:41:44;8.02;;;3.72;;
55090;SDS011;40985;53.180;5.800;2023-03-23T02:44:12;6.53;;;2.70;;
55090;SDS011;40985;53.180;5.800;2023-03-23T02:46:40;4.10;;;2.50;;
55090;SDS011;40985;53.180;5.800;2023-03-23T02:49:07;6.13;;;3.25;;
55090;SDS011;40985;53.180;5.800;2023-03-23T02:51:37;6.15;;;2.75;;
55090;SDS011;40985;53.180;5.800;2023-03-23T02:54:05;9.98;;;3.08;;
55090;SDS011;40985;53.180;5.800;2023-03-23T02:56:32;7.30;;;2.70;;
55090;SDS011;40985;53.180;5.800;2023-03-23T02:58:59;8.48;;;3.22;;
55090;SDS011;40985;53.180;5.800;2023-03-23T03:03:51;12.70;;;3.17;;
55090;SDS011;40985;53.180;5.800;2023-03-23T03:06:26;6.50;;;2.85;;
55090;SDS011;40985;53.180;5.800;2023-03-23T03:08:59;8.95;;;3.70;;
55090;SDS011;40985;53.180;5.800;2023-03-23T03:11:46;11.57;;;3.58;;
55090;SDS011;40985;53.180;5.800;2023-03-23T03:14:21;7.32;;;2.72;;
55090;SDS011;40985;53.180;5.800;2023-03-23T03:19:29;5.05;;;2.63;;
55090;SDS011;40985;53.180;5.800;2023-03-23T03:22:02;10.95;;;3.25;;
55090;SDS011;40985;53.180;5.800;2023-03-23T03:24:30;7.47;;;2.88;;
55090;SDS011;40985;53.180;5.800;2023-03-23T03:26:57;8.07;;;1.77;;
55090;SDS011;40985;53.180;5.800;2023-03-23T03:29:26;5.78;;;2.33;;
55090;SDS011;40985;53.180;5.800;2023-03-23T03:31:59;8.68;;;2.53;;
55090;SDS011;40985;53.180;5.800;2023-03-23T03:34:26;7.35;;;1.95;;
55090;SDS011;40985;53.180;5.800;2023-03-23T03:36:53;8.77;;;1.67;;
55090;SDS011;40985;53.180;5.800;2023-03-23T03:39:23;8.82;;;3.30;;
55090;SDS011;40985;53.180;5.800;2023-03-23T03:41:49;8.35;;;3.17;;
55090;SDS011;40985;53.180;5.800;2023-03-23T03:44:15;11.45;;;2.88;;
55090;SDS011;40985;53.180;5.800;2023-03-23T03:46:41;13.27;;;3.72;;
55090;SDS011;40985;53.180;5.800;2023-03-23T03:49:09;10.32;;;3.88;;
55090;SDS011;40985;53.180;5.800;2023-03-23T03:51:40;8.75;;;3.15;;
55090;SDS011;40985;53.180;5.800;2023-03-23T03:54:06;10.43;;;3.08;;
55090;SDS011;40985;53.180;5.800;2023-03-23T03:56:32;8.75;;;2.85;;
55090;SDS011;40985;53.180;5.800;2023-03-23T03:59:02;6.57;;;2.03;;
55090;SDS011;40985;53.180;5.800;2023-03-23T04:01:28;9.60;;;2.20;;
55090;SDS011;40985;53.180;5.800;2023-03-23T04:03:54;8.43;;;1.42;;
55090;SDS011;40985;53.180;5.800;2023-03-23T04:06:22;9.57;;;1.70;;
55090;SDS011;40985;53.180;5.800;2023-03-23T04:08:48;11.32;;;1.45;;
55090;SDS011;40985;53.180;5.800;2023-03-23T04:11:14;9.77;;;1.83;;
55090;SDS011;40985;53.180;5.800;2023-03-23T04:13:40;11.18;;;2.30;;
55090;SDS011;40985;53.180;5.800;2023-03-23T04:16:06;10.65;;;1.35;;
55090;SDS011;40985;53.180;5.800;2023-03-23T04:18:33;10.52;;;1.90;;
55090;SDS011;40985;53.180;5.800;2023-03-23T04:21:00;10.35;;;0.90;;
55090;SDS011;40985;53.180;5.800;2023-03-23T04:23:27;8.48;;;1.25;;
55090;SDS011;40985;53.180;5.800;2023-03-23T04:25:56;9.88;;;0.93;;
55090;SDS011;40985;53.180;5.800;2023-03-23T04:28:23;8.93;;;0.57;;
55090;SDS011;40985;53.180;5.800;2023-03-23T04:30:51;9.95;;;0.98;;
55090;SDS011;40985;53.180;5.800;2023-03-23T04:33:23;11.32;;;1.27;;
55090;SDS011;40985;53.180;5.800;2023-03-23T04:35:53;8.52;;;1.05;;
55090;SDS011;40985;53.180;5.800;2023-03-23T04:38:23;12.68;;;1.35;;
55090;SDS011;40985;53.180;5.800;2023-03-23T04:40:51;11.68;;;0.95;;
55090;SDS011;40985;53.180;5.800;2023-03-23T04:43:18;14.00;;;1.10;;
55090;SDS011;40985;53.180;5.800;2023-03-23T04:45:46;12.40;;;1.60;;
55090;SDS011;40985;53.180;5.800;2023-03-23T04:48:21;18.23;;;1.50;;
55090;SDS011;40985;53.180;5.800;2023-03-23T04:50:55;19.35;;;2.55;;
55090;SDS011;40985;53.180;5.800;2023-03-23T04:53:22;13.57;;;1.83;;
55090;SDS011;40985;53.180;5.800;2023-03-23T04:55:48;19.20;;;1.75;;
55090;SDS011;40985;53.180;5.800;2023-03-23T04:58:14;24.42;;;1.90;;
55090;SDS011;40985;53.180;5.800;2023-03-23T05:00:41;14.80;;;1.40;;
55090;SDS011;40985;53.180;5.800;2023-03-23T05:03:09;14.15;;;1.92;;
55090;SDS011;40985;53.180;5.800;2023-03-23T05:05:35;22.27;;;1.95;;
55090;SDS011;40985;53.180;5.800;2023-03-23T05:08:01;16.63;;;1.98;;
55090;SDS011;40985;53.180;5.800;2023-03-23T05:10:27;18.35;;;2.45;;
55090;SDS011;40985;53.180;5.800;2023-03-23T05:12:53;19.08;;;2.35;;
55090;SDS011;40985;53.180;5.800;2023-03-23T05:15:19;25.65;;;2.92;;
55090;SDS011;40985;53.180;5.800;2023-03-23T05:17:50;17.92;;;2.20;;
55090;SDS011;40985;53.180;5.800;2023-03-23T05:20:17;24.55;;;2.30;;
55090;SDS011;40985;53.180;5.800;2023-03-23T05:22:54;23.83;;;2.50;;
55090;SDS011;40985;53.180;5.800;2023-03-23T05:25:22;20.33;;;2.60;;
55090;SDS011;40985;53.180;5.800;2023-03-23T05:27:48;25.00;;;3.22;;
55090;SDS011;40985;53.180;5.800;2023-03-23T05:30:17;29.15;;;3.58;;
55090;SDS011;40985;53.180;5.800;2023-03-23T05:32:44;26.23;;;3.08;;
55090;SDS011;40985;53.180;5.800;2023-03-23T05:35:10;23.55;;;2.88;;
55090;SDS011;40985;53.180;5.800;2023-03-23T05:37:37;21.00;;;2.17;;
55090;SDS011;40985;53.180;5.800;2023-03-23T05:40:03;21.77;;;1.92;;
55090;SDS011;40985;53.180;5.800;2023-03-23T05:42:34;28.83;;;3.35;;
55090;SDS011;40985;53.180;5.800;2023-03-23T05:45:09;29.52;;;3.70;;
55090;SDS011;40985;53.180;5.800;2023-03-23T05:47:41;22.85;;;2.38;;
55090;SDS011;40985;53.180;5.800;2023-03-23T05:50:07;26.55;;;2.88;;
55090;SDS011;40985;53.180;5.800;2023-03-23T05:52:34;13.63;;;1.20;;
55090;SDS011;40985;53.180;5.800;2023-03-23T05:55:01;14.15;;;1.08;;
55090;SDS011;40985;53.180;5.800;2023-03-23T05:57:28;11.07;;;1.08;;
55090;SDS011;40985;53.180;5.800;2023-03-23T05:59:54;11.48;;;0.82;;
55090;SDS011;40985;53.180;5.800;2023-03-23T06:02:22;9.73;;;0.70;;
55090;SDS011;40985;53.180;5.800;2023-03-23T06:04:49;10.77;;;0.85;;
55090;SDS011;40985;53.180;5.800;2023-03-23T06:09:48;6.35;;;0.60;;
55090;SDS011;40985;53.180;5.800;2023-03-23T06:12:15;9.70;;;0.73;;
55090;SDS011;40985;53.180;5.800;2023-03-23T06:14:45;3.78;;;0.47;;
55090;SDS011;40985;53.180;5.800;2023-03-23T06:17:14;9.65;;;1.02;;
55090;SDS011;40985;53.180;5.800;2023-03-23T06:19:42;7.90;;;0.60;;
55090;SDS011;40985;53.180;5.800;2023-03-23T06:22:09;11.77;;;0.70;;
55090;SDS011;40985;53.180;5.800;2023-03-23T06:24:35;8.40;;;0.80;;
55090;SDS011;40985;53.180;5.800;2023-03-23T06:27:01;14.05;;;0.98;;
55090;SDS011;40985;53.180;5.800;2023-03-23T06:29:27;11.18;;;1.00;;
55090;SDS011;40985;53.180;5.800;2023-03-23T06:31:57;13.25;;;1.42;;
55090;SDS011;40985;53.180;5.800;2023-03-23T06:34:26;13.88;;;1.08;;
55090;SDS011;40985;53.180;5.800;2023-03-23T06:36:51;11.73;;;1.20;;
55090;SDS011;40985;53.180;5.800;2023-03-23T06:39:18;10.52;;;0.88;;
55090;SDS011;40985;53.180;5.800;2023-03-23T06:41:44;17.95;;;2.35;;
55090;SDS011;40985;53.180;5.800;2023-03-23T06:44:10;17.58;;;1.75;;
55090;SDS011;40985;53.180;5.800;2023-03-23T06:46:38;16.98;;;1.48;;
55090;SDS011;40985;53.180;5.800;2023-03-23T06:49:06;24.67;;;2.72;;
55090;SDS011;40985;53.180;5.800;2023-03-23T06:51:32;22.75;;;3.10;;
55090;SDS011;40985;53.180;5.800;2023-03-23T06:53:58;22.17;;;3.78;;
55090;SDS011;40985;53.180;5.800;2023-03-23T06:56:24;23.92;;;3.55;;
55090;SDS011;40985;53.180;5.800;2023-03-23T06:58:50;25.85;;;3.03;;
55090;SDS011;40985;53.180;5.800;2023-03-23T07:01:16;30.83;;;3.63;;
55090;SDS011;40985;53.180;5.800;2023-03-23T07:03:42;34.92;;;3.92;;
55090;SDS011;40985;53.180;5.800;2023-03-23T07:06:08;36.42;;;4.22;;
55090;SDS011;40985;53.180;5.800;2023-03-23T07:08:37;36.13;;;4.38;;
55090;SDS011;40985;53.180;5.800;2023-03-23T07:11:03;34.17;;;4.00;;
55090;SDS011;40985;53.180;5.800;2023-03-23T07:13:29;33.50;;;4.95;;
55090;SDS011;40985;53.180;5.800;2023-03-23T07:15:56;31.88;;;3.95;;
55090;SDS011;40985;53.180;5.800;2023-03-23T07:18:23;38.45;;;4.50;;
55090;SDS011;40985;53.180;5.800;2023-03-23T07:20:50;31.17;;;4.45;;
55090;SDS011;40985;53.180;5.800;2023-03-23T07:23:17;43.13;;;5.47;;
55090;SDS011;40985;53.180;5.800;2023-03-23T07:25:43;34.58;;;4.47;;
55090;SDS011;40985;53.180;5.800;2023-03-23T07:28:10;32.30;;;4.10;;
55090;SDS011;40985;53.180;5.800;2023-03-23T07:30:37;33.08;;;4.72;;
55090;SDS011;40985;53.180;5.800;2023-03-23T07:33:06;34.38;;;3.88;;
55090;SDS011;40985;53.180;5.800;2023-03-23T07:35:34;29.00;;;4.28;;
55090;SDS011;40985;53.180;5.800;2023-03-23T07:38:00;28.88;;;3.55;;
55090;SDS011;40985;53.180;5.800;2023-03-23T07:40:27;28.77;;;3.60;;
55090;SDS011;40985;53.180;5.800;2023-03-23T07:42:55;34.50;;;3.95;;
55090;SDS011;40985;53.180;5.800;2023-03-23T07:45:22;30.67;;;4.95;;
55090;SDS011;40985;53.180;5.800;2023-03-23T07:47:48;35.15;;;3.97;;
55090;SDS011;40985;53.180;5.800;2023-03-23T07:50:14;31.95;;;3.63;;
55090;SDS011;40985;53.180;5.800;2023-03-23T07:52:40;30.05;;;4.07;;
55090;SDS011;40985;53.180;5.800;2023-03-23T07:55:07;37.15;;;4.88;;
55090;SDS011;40985;53.180;5.800;2023-03-23T07:57:45;37.95;;;5.18;;
55090;SDS011;40985;53.180;5.800;2023-03-23T08:00:13;36.13;;;4.88;;
55090;SDS011;40985;53.180;5.800;2023-03-23T08:02:44;32.58;;;3.88;;
55090;SDS011;40985;53.180;5.800;2023-03-23T08:05:15;30.83;;;3.65;;
55090;SDS011;40985;53.180;5.800;2023-03-23T08:07:43;27.98;;;4.25;;
55090;SDS011;40985;53.180;5.800;2023-03-23T08:10:12;32.95;;;3.40;;
55090;SDS011;40985;53.180;5.800;2023-03-23T08:12:39;29.25;;;4.22;;
55090;SDS011;40985;53.180;5.800;2023-03-23T08:15:08;33.30;;;5.45;;
55090;SDS011;40985;53.180;5.800;2023-03-23T08:17:38;29.13;;;4.15;;
55090;SDS011;40985;53.180;5.800;2023-03-23T08:20:05;35.65;;;3.65;;
55090;SDS011;40985;53.180;5.800;2023-03-23T08:22:37;28.80;;;5.88;;
55090;SDS011;40985;53.180;5.800;2023-03-23T08:25:10;28.90;;;4.25;;
55090;SDS011;40985;53.180;5.800;2023-03-23T08:27:38;25.60;;;3.83;;
55090;SDS011;40985;53.180;5.800;2023-03-23T08:30:12;34.15;;;4.75;;
55090;SDS011;40985;53.180;5.800;2023-03-23T08:32:42;35.90;;;4.35;;
55090;SDS011;40985;53.180;5.800;2023-03-23T08:35:10;28.27;;;3.42;;
55090;SDS011;40985;53.180;5.800;2023-03-23T08:37:36;28.38;;;3.15;;
55090;SDS011;40985;53.180;5.800;2023-03-23T08:40:03;34.22;;;4.55;;
55090;SDS011;40985;53.180;5.800;2023-03-23T08:42:34;26.48;;;4.05;;
55090;SDS011;40985;53.180;5.800;2023-03-23T08:45:01;32.58;;;3.47;;
55090;SDS011;40985;53.180;5.800;2023-03-23T08:47:31;33.80;;;4.50;;
55090;SDS011;40985;53.180;5.800;2023-03-23T08:49:57;25.50;;;3.42;;
55090;SDS011;40985;53.180;5.800;2023-03-23T08:52:25;26.92;;;4.22;;
55090;SDS011;40985;53.180;5.800;2023-03-23T08:54:51;30.00;;;3.47;;
55090;SDS011;40985;53.180;5.800;2023-03-23T08:57:16;39.15;;;4.68;;
55090;SDS011;40985;53.180;5.800;2023-03-23T08:59:43;27.08;;;3.60;;
55090;SDS011;40985;53.180;5.800;2023-03-23T09:02:09;34.35;;;4.32;;
55090;SDS011;40985;53.180;5.800;2023-03-23T09:04:39;29.55;;;3.60;;
55090;SDS011;40985;53.180;5.800;2023-03-23T09:07:10;37.78;;;4.40;;
55090;SDS011;40985;53.180;5.800;2023-03-23T09:09:37;30.60;;;4.50;;
55090;SDS011;40985;53.180;5.800;2023-03-23T09:12:07;28.05;;;3.38;;
55090;SDS011;40985;53.180;5.800;2023-03-23T09:14:34;31.85;;;4.55;;
55090;SDS011;40985;53.180;5.800;2023-03-23T09:17:00;35.08;;;4.38;;
55090;SDS011;40985;53.180;5.800;2023-03-23T09:19:28;27.88;;;3.45;;
55090;SDS011;40985;53.180;5.800;2023-03-23T09:21:54;27.38;;;3.47;;
55090;SDS011;40985;53.180;5.800;2023-03-23T09:24:20;36.05;;;4.22;;
55090;SDS011;40985;53.180;5.800;2023-03-23T09:26:47;31.95;;;5.15;;
55090;SDS011;40985;53.180;5.800;2023-03-23T09:29:12;34.95;;;4.60;;
55090;SDS011;40985;53.180;5.800;2023-03-23T09:31:38;36.38;;;4.97;;
55090;SDS011;40985;53.180;5.800;2023-03-23T09:34:08;34.25;;;5.47;;
55090;SDS011;40985;53.180;5.800;2023-03-23T09:36:35;36.25;;;4.57;;
55090;SDS011;40985;53.180;5.800;2023-03-23T09:39:04;28.60;;;3.47;;
55090;SDS011;40985;53.180;5.800;2023-03-23T09:47:32;32.72;;;3.22;;
55090;SDS011;40985;53.180;5.800;2023-03-23T09:50:32;32.30;;;3.83;;
55090;SDS011;40985;53.180;5.800;2023-03-23T09:53:12;28.10;;;4.25;;
55090;SDS011;40985;53.180;5.800;2023-03-23T09:55:46;24.15;;;2.65;;
55090;SDS011;40985;53.180;5.800;2023-03-23T09:58:18;27.95;;;3.72;;
55090;SDS011;40985;53.180;5.800;2023-03-23T10:01:06;20.60;;;3.08;;
55090;SDS011;40985;53.180;5.800;2023-03-23T10:03:48;29.40;;;4.07;;
55090;SDS011;40985;53.180;5.800;2023-03-23T10:06:20;27.35;;;3.08;;
55090;SDS011;40985;53.180;5.800;2023-03-23T10:08:50;19.08;;;2.42;;
55090;SDS011;40985;53.180;5.800;2023-03-23T10:22:31;24.63;;;3.38;;
55090;SDS011;40985;53.180;5.800;2023-03-23T10:30:55;26.80;;;3.20;;
55090;SDS011;40985;53.180;5.800;2023-03-23T10:33:41;27.95;;;4.25;;
55090;SDS011;40985;53.180;5.800;2023-03-23T10:36:18;30.80;;;3.90;;
55090;SDS011;40985;53.180;5.800;2023-03-23T10:38:57;27.67;;;3.00;;
55090;SDS011;40985;53.180;5.800;2023-03-23T10:41:38;22.90;;;2.53;;
55090;SDS011;40985;53.180;5.800;2023-03-23T10:44:09;28.33;;;4.20;;
55090;SDS011;40985;53.180;5.800;2023-03-23T10:49:41;33.55;;;3.55;;
55090;SDS011;40985;53.180;5.800;2023-03-23T10:52:34;25.75;;;3.28;;
55090;SDS011;40985;53.180;5.800;2023-03-23T10:55:16;20.08;;;3.28;;
55090;SDS011;40985;53.180;5.800;2023-03-23T10:57:57;21.60;;;3.10;;
55090;SDS011;40985;53.180;5.800;2023-03-23T11:00:30;15.95;;;2.67;;
55090;SDS011;40985;53.180;5.800;2023-03-23T11:02:59;22.40;;;2.67;;
55090;SDS011;40985;53.180;5.800;2023-03-23T11:08:23;21.10;;;2.40;;
55090;SDS011;40985;53.180;5.800;2023-03-23T11:10:59;18.10;;;2.03;;
55090;SDS011;40985;53.180;5.800;2023-03-23T11:13:46;20.40;;;2.72;;
55090;SDS011;40985;53.180;5.800;2023-03-23T11:16:26;18.67;;;1.92;;
55090;SDS011;40985;53.180;5.800;2023-03-23T11:18:57;18.67;;;2.13;;
55090;SDS011;40985;53.180;5.800;2023-03-23T11:21:27;18.20;;;2.63;;
55090;SDS011;40985;53.180;5.800;2023-03-23T11:24:00;20.50;;;2.92;;
55090;SDS011;40985;53.180;5.800;2023-03-23T11:26:27;20.58;;;2.55;;
55090;SDS011;40985;53.180;5.800;2023-03-23T11:28:58;24.10;;;2.40;;
55090;SDS011;40985;53.180;5.800;2023-03-23T11:31:39;20.30;;;2.17;;
55090;SDS011;40985;53.180;5.800;2023-03-23T11:34:12;22.67;;;2.22;;
55090;SDS011;40985;53.180;5.800;2023-03-23T11:36:48;19.25;;;2.30;;
55090;SDS011;40985;53.180;5.800;2023-03-23T11:39:22;18.30;;;1.80;;
55090;SDS011;40985;53.180;5.800;2023-03-23T11:41:50;15.45;;;2.38;;
55090;SDS011;40985;53.180;5.800;2023-03-23T11:44:16;18.65;;;2.25;;
55090;SDS011;40985;53.180;5.800;2023-03-23T11:57:44;18.67;;;2.08;;
55090;SDS011;40985;53.180;5.800;2023-03-23T12:00:14;19.20;;;2.17;;
55090;SDS011;40985;53.180;5.800;2023-03-23T12:05:32;16.52;;;2.42;;
55090;SDS011;40985;53.180;5.800;2023-03-23T12:35:28;18.63;;;1.70;;
55090;SDS011;40985;53.180;5.800;2023-03-23T12:38:06;17.35;;;2.95;;
55090;SDS011;40985;53.180;5.800;2023-03-23T12:41:14;18.35;;;2.38;;
55090;SDS011;40985;53.180;5.800;2023-03-23T12:44:01;25.35;;;2.47;;
55090;SDS011;40985;53.180;5.800;2023-03-23T12:52:25;17.17;;;1.98;;
55090;SDS011;40985;53.180;5.800;2023-03-23T12:55:04;18.00;;;2.05;;
55090;SDS011;40985;53.180;5.800;2023-03-23T13:03:38;19.10;;;1.60;;
55090;SDS011;40985;53.180;5.800;2023-03-23T13:06:12;21.50;;;2.00;;
55090;SDS011;40985;53.180;5.800;2023-03-23T13:12:00;16.90;;;2.70;;
55090;SDS011;40985;53.180;5.800;2023-03-23T13:25:55;20.42;;;2.95;;
55090;SDS011;40985;53.180;5.800;2023-03-23T13:28:26;20.48;;;2.13;;
55090;SDS011;40985;53.180;5.800;2023-03-23T13:30:54;17.75;;;2.80;;
55090;SDS011;40985;53.180;5.800;2023-03-23T13:33:26;17.88;;;2.30;;
55090;SDS011;40985;53.180;5.800;2023-03-23T13:35:55;19.40;;;2.97;;
55090;SDS011;40985;53.180;5.800;2023-03-23T13:38:31;17.10;;;2.42;;
55090;SDS011;40985;53.180;5.800;2023-03-23T13:40:58;18.52;;;2.42;;
55090;SDS011;40985;53.180;5.800;2023-03-23T13:43:33;14.20;;;1.63;;
55090;SDS011;40985;53.180;5.800;2023-03-23T13:48:46;14.85;;;1.80;;
55090;SDS011;40985;53.180;5.800;2023-03-23T13:54:05;17.02;;;2.25;;
55090;SDS011;40985;53.180;5.800;2023-03-23T13:56:47;19.90;;;1.88;;
55090;SDS011;40985;53.180;5.800;2023-03-23T13:59:29;14.23;;;1.70;;
55090;SDS011;40985;53.180;5.800;2023-03-23T14:04:56;12.45;;;1.58;;
55090;SDS011;40985;53.180;5.800;2023-03-23T14:07:49;15.85;;;1.77;;
55090;SDS011;40985;53.180;5.800;2023-03-23T14:10:25;15.65;;;1.35;;
55090;SDS011;40985;53.180;5.800;2023-03-23T14:12:58;16.35;;;1.75;;
55090;SDS011;40985;53.180;5.800;2023-03-23T14:15:30;13.85;;;1.35;;
55090;SDS011;40985;53.180;5.800;2023-03-23T14:18:03;15.30;;;1.35;;
55090;SDS011;40985;53.180;5.800;2023-03-23T14:20:34;17.80;;;1.38;;
55090;SDS011;40985;53.180;5.800;2023-03-23T14:23:03;8.80;;;1.13;;
55090;SDS011;40985;53.180;5.800;2023-03-23T14:25:30;9.90;;;0.80;;
55090;SDS011;40985;53.180;5.800;2023-03-23T14:27:59;10.82;;;1.38;;
55090;SDS011;40985;53.180;5.800;2023-03-23T14:30:25;15.52;;;1.23;;
55090;SDS011;40985;53.180;5.800;2023-03-23T14:33:06;8.05;;;0.80;;
55090;SDS011;40985;53.180;5.800;2023-03-23T14:35:34;12.27;;;1.50;;
55090;SDS011;40985;53.180;5.800;2023-03-23T14:38:06;13.90;;;1.17;;
55090;SDS011;40985;53.180;5.800;2023-03-23T14:40:43;11.10;;;1.20;;
55090;SDS011;40985;53.180;5.800;2023-03-23T14:43:10;11.68;;;1.05;;
55090;SDS011;40985;53.180;5.800;2023-03-23T14:45:40;13.98;;;1.80;;
55090;SDS011;40985;53.180;5.800;2023-03-23T14:48:06;10.77;;;1.15;;
55090;SDS011;40985;53.180;5.800;2023-03-23T14:50:48;10.45;;;1.40;;
55090;SDS011;40985;53.180;5.800;2023-03-23T14:55:47;16.58;;;1.30;;
55090;SDS011;40985;53.180;5.800;2023-03-23T14:58:14;11.85;;;1.27;;
55090;SDS011;40985;53.180;5.800;2023-03-23T15:00:44;11.00;;;1.88;;
55090;SDS011;40985;53.180;5.800;2023-03-23T15:03:20;16.45;;;1.30;;
55090;SDS011;40985;53.180;5.800;2023-03-23T15:05:48;10.20;;;0.90;;
55090;SDS011;40985;53.180;5.800;2023-03-23T15:08:28;11.10;;;1.20;;
55090;SDS011;40985;53.180;5.800;2023-03-23T15:13:45;12.88;;;1.38;;
55090;SDS011;40985;53.180;5.800;2023-03-23T15:16:19;13.18;;;2.20;;
55090;SDS011;40985;53.180;5.800;2023-03-23T15:18:55;12.90;;;1.65;;
55090;SDS011;40985;53.180;5.800;2023-03-23T15:21:31;10.57;;;1.17;;
55090;SDS011;40985;53.180;5.800;2023-03-23T15:23:59;16.63;;;1.55;;
55090;SDS011;40985;53.180;5.800;2023-03-23T15:29:14;9.50;;;1.17;;
55090;SDS011;40985;53.180;5.800;2023-03-23T15:34:12;19.75;;;1.75;;
55090;SDS011;40985;53.180;5.800;2023-03-23T15:36:43;12.00;;;1.25;;
55090;SDS011;40985;53.180;5.800;2023-03-23T15:39:11;19.02;;;2.03;;
55090;SDS011;40985;53.180;5.800;2023-03-23T15:41:48;21.52;;;2.15;;
55090;SDS011;40985;53.180;5.800;2023-03-23T15:44:22;16.75;;;1.75;;
55090;SDS011;40985;53.180;5.800;2023-03-23T15:47:34;16.27;;;2.53;;
55090;SDS011;40985;53.180;5.800;2023-03-23T15:50:04;18.58;;;1.95;;
55090;SDS011;40985;53.180;5.800;2023-03-23T15:52:38;16.10;;;3.13;;
55090;SDS011;40985;53.180;5.800;2023-03-23T15:55:15;17.65;;;2.22;;
55090;SDS011;40985;53.180;5.800;2023-03-23T15:57:50;24.33;;;3.75;;
55090;SDS011;40985;53.180;5.800;2023-03-23T16:00:17;18.42;;;2.20;;
55090;SDS011;40985;53.180;5.800;2023-03-23T16:02:48;17.33;;;2.25;;
55090;SDS011;40985;53.180;5.800;2023-03-23T16:05:21;20.08;;;2.45;;
55090;SDS011;40985;53.180;5.800;2023-03-23T16:07:48;22.13;;;2.03;;
55090;SDS011;40985;53.180;5.800;2023-03-23T16:10:18;19.48;;;2.58;;
55090;SDS011;40985;53.180;5.800;2023-03-23T16:12:46;20.85;;;2.15;;
55090;SDS011;40985;53.180;5.800;2023-03-23T16:15:12;21.08;;;2.70;;
55090;SDS011;40985;53.180;5.800;2023-03-23T16:17:38;22.60;;;2.58;;
55090;SDS011;40985;53.180;5.800;2023-03-23T16:20:27;22.13;;;3.35;;
55090;SDS011;40985;53.180;5.800;2023-03-23T16:22:52;17.10;;;3.60;;
55090;SDS011;40985;53.180;5.800;2023-03-23T16:25:18;20.42;;;2.38;;
55090;SDS011;40985;53.180;5.800;2023-03-23T16:27:44;22.23;;;2.75;;
55090;SDS011;40985;53.180;5.800;2023-03-23T16:30:25;22.42;;;2.88;;
55090;SDS011;40985;53.180;5.800;2023-03-23T16:32:52;15.88;;;2.22;;
55090;SDS011;40985;53.180;5.800;2023-03-23T16:35:18;25.75;;;3.60;;
55090;SDS011;40985;53.180;5.800;2023-03-23T16:37:48;21.35;;;2.53;;
55090;SDS011;40985;53.180;5.800;2023-03-23T16:40:17;23.27;;;3.75;;
55090;SDS011;40985;53.180;5.800;2023-03-23T16:42:43;20.20;;;3.17;;
55090;SDS011;40985;53.180;5.800;2023-03-23T16:45:11;21.13;;;2.92;;
55090;SDS011;40985;53.180;5.800;2023-03-23T16:47:42;21.38;;;3.00;;
55090;SDS011;40985;53.180;5.800;2023-03-23T16:50:11;22.60;;;2.95;;
55090;SDS011;40985;53.180;5.800;2023-03-23T16:52:41;21.25;;;3.35;;
55090;SDS011;40985;53.180;5.800;2023-03-23T16:55:09;26.92;;;4.63;;
55090;SDS011;40985;53.180;5.800;2023-03-23T16:57:36;25.50;;;3.17;;
55090;SDS011;40985;53.180;5.800;2023-03-23T17:00:03;21.70;;;3.10;;
55090;SDS011;40985;53.180;5.800;2023-03-23T17:02:30;20.98;;;2.83;;
55090;SDS011;40985;53.180;5.800;2023-03-23T17:04:57;26.88;;;3.65;;
55090;SDS011;40985;53.180;5.800;2023-03-23T17:07:23;25.92;;;4.03;;
55090;SDS011;40985;53.180;5.800;2023-03-23T17:09:48;27.13;;;3.67;;
55090;SDS011;40985;53.180;5.800;2023-03-23T17:12:15;23.63;;;2.78;;
55090;SDS011;40985;53.180;5.800;2023-03-23T17:14:41;25.60;;;3.08;;
55090;SDS011;40985;53.180;5.800;2023-03-23T17:17:07;25.38;;;3.30;;